| time (UTC) | temp F | wind direction | speed knots | gust knots | rain 1hr in | rain 24hr in | rain mn in | humidity % | barometer mb |
| 20260504141056 | 63 | 308 | 8.7 | 8.7 | 0.00 | 0.00 | 0.00 | 50 | 1016.0 |
| 20260504140956 | 63 | 308 | 8.7 | 8.7 | 0.00 | 0.00 | 0.00 | 50 | 1016.0 |
| 20260504140556 | 63 | 308 | 8.7 | 8.7 | 0.00 | 0.00 | 0.00 | 50 | 1016.0 |
| 20260504140455 | 63 | 308 | 8.7 | 8.7 | 0.00 | 0.00 | 0.00 | 50 | 1016.0 |
| 20260504130547 | 63 | 308 | 8.7 | 8.7 | 0.00 | 0.00 | 0.00 | 50 | 1016.0 |
| 20260504130447 | 63 | 308 | 8.7 | 8.7 | 0.00 | 0.00 | 0.00 | 50 | 1016.0 |
| 20260504110528 | 59 | 314 | 4.3 | 7.0 | 0.00 | 0.00 | 0.00 | 64 | 1016.0 |
| 20260504110428 | 59 | 314 | 4.3 | 7.0 | 0.00 | 0.00 | 0.00 | 64 | 1016.0 |
| 20260504100519 | 59 | 314 | 4.3 | 7.0 | 0.00 | 0.00 | 0.00 | 64 | 1017.0 |
| 20260504100419 | 59 | 314 | 4.3 | 7.0 | 0.00 | 0.00 | 0.00 | 64 | 1017.0 |
| 20260504082003 | 53 | 332 | 2.6 | 7.0 | 0.00 | 0.00 | 0.00 | 85 | 1016.0 |
| 20260504081903 | 53 | 332 | 2.6 | 7.0 | 0.00 | 0.00 | 0.00 | 85 | 1016.0 |
| 20260504081502 | 53 | 332 | 2.6 | 7.0 | 0.00 | 0.00 | 0.00 | 85 | 1016.0 |
| 20260504081402 | 53 | 332 | 2.6 | 7.0 | 0.00 | 0.00 | 0.00 | 85 | 1016.0 |
| 20260504081002 | 53 | 332 | 2.6 | 7.0 | 0.00 | 0.00 | 0.00 | 85 | 1016.0 |
| 20260504080901 | 53 | 332 | 2.6 | 7.0 | 0.00 | 0.00 | 0.00 | 85 | 1016.0 |
| 20260504080501 | 53 | 332 | 2.6 | 7.0 | 0.00 | 0.00 | 0.00 | 85 | 1016.0 |
| 20260504080401 | 53 | 332 | 2.6 | 7.0 | 0.00 | 0.00 | 0.00 | 85 | 1016.0 |
| 20260504070352 | 49 | 309 | 0.9 | 0.9 | 0.00 | 0.00 | 0.00 | 94 | 1016.0 |
| 20260504050434 | 49 | 309 | 0.9 | 0.9 | 0.00 | 0.00 | 0.00 | 94 | 1015.0 |
| 20260504050334 | 49 | 309 | 0.9 | 0.9 | 0.00 | 0.00 | 0.00 | 94 | 1015.0 |
| 20260504045933 | 48 | 309 | 0.9 | 0.9 | 0.00 | 0.00 | 0.00 | 95 | 1015.0 |
| 20260504045833 | 48 | 309 | 0.9 | 0.9 | 0.00 | 0.00 | 0.00 | 95 | 1015.0 |
| 20260504045433 | 48 | 309 | 0.9 | 0.9 | 0.00 | 0.00 | 0.00 | 95 | 1015.0 |
| 20260504045336 | 48 | 309 | 0.9 | 0.9 | 0.00 | 0.00 | 0.00 | 95 | 1015.0 |
| 20260504044932 | 48 | 309 | 0.9 | 0.9 | 0.00 | 0.00 | 0.00 | 95 | 1015.0 |
| 20260504044831 | 48 | 309 | 0.9 | 0.9 | 0.00 | 0.00 | 0.00 | 95 | 1015.0 |
| 20260504044431 | 48 | 309 | 0.9 | 0.9 | 0.00 | 0.00 | 0.00 | 95 | 1015.0 |
| 20260504044331 | 48 | 309 | 0.9 | 0.9 | 0.00 | 0.00 | 0.00 | 95 | 1015.0 |
| 20260504043931 | 48 | 309 | 0.9 | 0.9 | 0.00 | 0.00 | 0.00 | 95 | 1015.0 |
| 20260504043831 | 48 | 309 | 0.9 | 0.9 | 0.00 | 0.00 | 0.00 | 95 | 1015.0 |
| 20260504043430 | 48 | 309 | 0.9 | 0.9 | 0.00 | 0.00 | 0.00 | 95 | 1015.0 |
| 20260504043330 | 48 | 309 | 0.9 | 0.9 | 0.00 | 0.00 | 0.00 | 95 | 1015.0 |
| 20260504042929 | 48 | 269 | 0.0 | 0.0 | 0.00 | 0.00 | 0.00 | 95 | 1015.0 |
| 20260504042829 | 48 | 269 | 0.0 | 0.0 | 0.00 | 0.00 | 0.00 | 95 | 1015.0 |
| 20260504042428 | 48 | 269 | 0.0 | 0.0 | 0.00 | 0.00 | 0.00 | 95 | 1015.0 |
| 20260504042328 | 48 | 269 | 0.0 | 0.0 | 0.00 | 0.00 | 0.00 | 95 | 1015.0 |
| 20260504041928 | 48 | 269 | 0.0 | 0.0 | 0.00 | 0.00 | 0.00 | 95 | 1015.0 |
| 20260504041827 | 48 | 269 | 0.0 | 0.0 | 0.00 | 0.00 | 0.00 | 95 | 1015.0 |
| 20260504041427 | 48 | 269 | 0.0 | 0.0 | 0.00 | 0.00 | 0.00 | 95 | 1015.0 |
| 20260504041327 | 48 | 269 | 0.0 | 0.0 | 0.00 | 0.00 | 0.00 | 95 | 1015.0 |
| 20260504040926 | 48 | 269 | 0.0 | 0.0 | 0.00 | 0.00 | 0.00 | 95 | 1015.0 |
| 20260504040826 | 48 | 269 | 0.0 | 0.0 | 0.00 | 0.00 | 0.00 | 95 | 1015.0 |
| 20260504040425 | 48 | 269 | 0.0 | 0.0 | 0.00 | 0.00 | 0.00 | 95 | 1015.0 |
| 20260504040325 | 48 | 269 | 0.0 | 0.0 | 0.00 | 0.00 | 0.00 | 95 | 1015.0 |
| 20260504035924 | 53 | 331 | 0.9 | 0.0 | 0.00 | 0.00 | 0.00 | 94 | 1015.0 |
| 20260504035824 | 53 | 331 | 0.9 | 0.0 | 0.00 | 0.00 | 0.00 | 94 | 1015.0 |
| 20260504035424 | 53 | 331 | 0.9 | 0.0 | 0.00 | 0.00 | 0.00 | 94 | 1015.0 |
| 20260504035324 | 53 | 331 | 0.9 | 0.0 | 0.00 | 0.00 | 0.00 | 94 | 1015.0 |
| 20260504034923 | 53 | 331 | 0.9 | 0.0 | 0.00 | 0.00 | 0.00 | 94 | 1015.0 |
| 20260504034823 | 53 | 331 | 0.9 | 0.0 | 0.00 | 0.00 | 0.00 | 94 | 1015.0 |
| 20260504034422 | 53 | 331 | 0.9 | 0.0 | 0.00 | 0.00 | 0.00 | 94 | 1015.0 |
| 20260504034322 | 53 | 331 | 0.9 | 0.0 | 0.00 | 0.00 | 0.00 | 94 | 1015.0 |
| 20260504033921 | 53 | 331 | 0.9 | 0.0 | 0.00 | 0.00 | 0.00 | 94 | 1015.0 |
| 20260504033821 | 53 | 331 | 0.9 | 0.0 | 0.00 | 0.00 | 0.00 | 94 | 1015.0 |
| 20260504033421 | 53 | 331 | 0.9 | 0.0 | 0.00 | 0.00 | 0.00 | 94 | 1015.0 |
| 20260504033320 | 53 | 331 | 0.9 | 0.0 | 0.00 | 0.00 | 0.00 | 94 | 1015.0 |
| 20260504032920 | 53 | 331 | 0.9 | 0.0 | 0.00 | 0.00 | 0.00 | 94 | 1015.0 |
| 20260504032820 | 53 | 331 | 0.9 | 0.0 | 0.00 | 0.00 | 0.00 | 94 | 1015.0 |
| 20260504032419 | 53 | 331 | 0.9 | 0.0 | 0.00 | 0.00 | 0.00 | 94 | 1015.0 |
| 20260504032319 | 53 | 331 | 0.9 | 0.0 | 0.00 | 0.00 | 0.00 | 94 | 1015.0 |
| 20260504031918 | 53 | 331 | 0.9 | 0.0 | 0.00 | 0.00 | 0.00 | 94 | 1015.0 |
| 20260504031818 | 53 | 331 | 0.9 | 0.0 | 0.00 | 0.00 | 0.00 | 94 | 1015.0 |
| 20260504031418 | 53 | 331 | 0.9 | 0.0 | 0.00 | 0.00 | 0.00 | 94 | 1015.0 |
| 20260504031317 | 53 | 331 | 0.9 | 0.0 | 0.00 | 0.00 | 0.00 | 94 | 1015.0 |
| 20260504030917 | 53 | 331 | 0.9 | 0.0 | 0.00 | 0.00 | 0.00 | 94 | 1015.0 |
| 20260504030817 | 53 | 331 | 0.9 | 0.0 | 0.00 | 0.00 | 0.00 | 94 | 1015.0 |
| 20260504030416 | 53 | 331 | 0.9 | 0.0 | 0.00 | 0.00 | 0.00 | 94 | 1015.0 |
| 20260504030316 | 53 | 331 | 0.9 | 0.0 | 0.00 | 0.00 | 0.00 | 94 | 1015.0 |
| 20260504025915 | 53 | 331 | 0.9 | 0.0 | 0.00 | 0.00 | 0.00 | 94 | 1015.0 |
| 20260504025815 | 53 | 331 | 0.9 | 0.0 | 0.00 | 0.00 | 0.00 | 94 | 1015.0 |
| 20260504025414 | 53 | 331 | 0.9 | 0.0 | 0.00 | 0.00 | 0.00 | 94 | 1015.0 |
| 20260504025314 | 53 | 331 | 0.9 | 0.0 | 0.00 | 0.00 | 0.00 | 94 | 1015.0 |
| 20260504024914 | 53 | 331 | 0.9 | 0.0 | 0.00 | 0.00 | 0.00 | 94 | 1015.0 |
| 20260504024813 | 53 | 331 | 0.9 | 0.0 | 0.00 | 0.00 | 0.00 | 94 | 1015.0 |
| 20260504024413 | 53 | 331 | 0.9 | 0.0 | 0.00 | 0.00 | 0.00 | 94 | 1015.0 |
| 20260504024312 | 53 | 331 | 0.9 | 0.0 | 0.00 | 0.00 | 0.00 | 94 | 1015.0 |
| 20260504023913 | 53 | 331 | 0.9 | 0.0 | 0.00 | 0.00 | 0.00 | 94 | 1015.0 |
| 20260504023812 | 53 | 331 | 0.9 | 0.0 | 0.00 | 0.00 | 0.00 | 94 | 1015.0 |
| 20260504023411 | 53 | 331 | 0.9 | 0.0 | 0.00 | 0.00 | 0.00 | 94 | 1015.0 |
| 20260504023311 | 53 | 331 | 0.9 | 0.0 | 0.00 | 0.00 | 0.00 | 94 | 1015.0 |
| 20260504022911 | 53 | 331 | 0.9 | 0.0 | 0.00 | 0.00 | 0.00 | 94 | 1015.0 |
| 20260504022810 | 53 | 331 | 0.9 | 0.0 | 0.00 | 0.00 | 0.00 | 94 | 1015.0 |
| 20260504022410 | 53 | 331 | 0.9 | 0.0 | 0.00 | 0.00 | 0.00 | 94 | 1015.0 |
| 20260504022309 | 53 | 331 | 0.9 | 0.0 | 0.00 | 0.00 | 0.00 | 94 | 1015.0 |
| 20260504021909 | 53 | 331 | 0.9 | 0.0 | 0.00 | 0.00 | 0.00 | 94 | 1015.0 |
| 20260504021809 | 53 | 331 | 0.9 | 0.0 | 0.00 | 0.00 | 0.00 | 94 | 1015.0 |
| 20260504021408 | 53 | 331 | 0.9 | 0.0 | 0.00 | 0.00 | 0.00 | 94 | 1015.0 |
| 20260504021308 | 53 | 331 | 0.9 | 0.0 | 0.00 | 0.00 | 0.00 | 94 | 1015.0 |
| 20260504020907 | 53 | 331 | 0.9 | 0.0 | 0.00 | 0.00 | 0.00 | 94 | 1015.0 |
| 20260504020807 | 53 | 331 | 0.9 | 0.0 | 0.00 | 0.00 | 0.00 | 94 | 1015.0 |
| 20260504020406 | 53 | 331 | 0.9 | 0.0 | 0.00 | 0.00 | 0.00 | 94 | 1015.0 |
| 20260504020306 | 53 | 331 | 0.9 | 0.0 | 0.00 | 0.00 | 0.00 | 94 | 1015.0 |
| 20260504015906 | 53 | 331 | 0.9 | 0.0 | 0.00 | 0.00 | 0.00 | 94 | 1015.0 |
| 20260504015806 | 53 | 331 | 0.9 | 0.0 | 0.00 | 0.00 | 0.00 | 94 | 1015.0 |
| 20260504015405 | 53 | 331 | 0.9 | 0.0 | 0.00 | 0.00 | 0.00 | 94 | 1015.0 |
| 20260504015305 | 53 | 331 | 0.9 | 0.0 | 0.00 | 0.00 | 0.00 | 94 | 1015.0 |
| 20260504014905 | 53 | 331 | 0.9 | 0.0 | 0.00 | 0.00 | 0.00 | 94 | 1015.0 |
| 20260504014804 | 53 | 331 | 0.9 | 0.0 | 0.00 | 0.00 | 0.00 | 94 | 1015.0 |
| 20260504014404 | 53 | 331 | 0.9 | 0.0 | 0.00 | 0.00 | 0.00 | 94 | 1015.0 |
| 20260504014303 | 53 | 331 | 0.9 | 0.0 | 0.00 | 0.00 | 0.00 | 94 | 1015.0 |
| 20260504013903 | 53 | 331 | 0.9 | 0.0 | 0.00 | 0.00 | 0.00 | 94 | 1015.0 |
| 20260504013803 | 53 | 331 | 0.9 | 0.0 | 0.00 | 0.00 | 0.00 | 94 | 1015.0 |
| 20260504012902 | 53 | 331 | 0.9 | 0.0 | 0.00 | 0.00 | 0.00 | 94 | 1015.0 |
| 20260504012801 | 53 | 331 | 0.9 | 0.0 | 0.00 | 0.00 | 0.00 | 94 | 1015.0 |
| 20260504012401 | 53 | 331 | 0.9 | 0.0 | 0.00 | 0.00 | 0.00 | 94 | 1015.0 |
| 20260504012301 | 53 | 331 | 0.9 | 0.0 | 0.00 | 0.00 | 0.00 | 94 | 1015.0 |
| 20260504011857 | 53 | 331 | 0.9 | 0.0 | 0.00 | 0.00 | 0.00 | 94 | 1015.0 |
| 20260504011756 | 53 | 331 | 0.9 | 0.0 | 0.00 | 0.00 | 0.00 | 94 | 1015.0 |
| 20260504011356 | 53 | 331 | 0.9 | 0.0 | 0.00 | 0.00 | 0.00 | 94 | 1016.0 |
| 20260504011255 | 53 | 331 | 0.9 | 0.0 | 0.00 | 0.00 | 0.00 | 94 | 1016.0 |
| 20260504010855 | 53 | 331 | 0.9 | 0.0 | 0.00 | 0.00 | 0.00 | 94 | 1016.0 |
| 20260504010755 | 53 | 331 | 0.9 | 0.0 | 0.00 | 0.00 | 0.00 | 94 | 1016.0 |
| 20260504010354 | 53 | 331 | 0.9 | 0.0 | 0.00 | 0.00 | 0.00 | 94 | 1016.0 |
| 20260504010254 | 53 | 331 | 0.9 | 0.0 | 0.00 | 0.00 | 0.00 | 94 | 1016.0 |
| 20260504005854 | 53 | 331 | 0.9 | 0.0 | 0.00 | 0.00 | 0.00 | 94 | 1016.0 |
| 20260504005353 | 53 | 331 | 0.9 | 0.0 | 0.00 | 0.00 | 0.00 | 94 | 1016.0 |
| 20260504005253 | 53 | 331 | 0.9 | 0.0 | 0.00 | 0.00 | 0.00 | 94 | 1016.0 |
| 20260504004853 | 53 | 331 | 0.9 | 0.0 | 0.00 | 0.00 | 0.00 | 94 | 1016.0 |
| 20260504004752 | 53 | 331 | 0.9 | 0.0 | 0.00 | 0.00 | 0.00 | 94 | 1016.0 |
| 20260504004352 | 53 | 331 | 0.9 | 0.0 | 0.00 | 0.00 | 0.00 | 94 | 1016.0 |
| 20260504004252 | 53 | 331 | 0.9 | 0.0 | 0.00 | 0.00 | 0.00 | 94 | 1016.0 |
| 20260504003852 | 53 | 331 | 0.9 | 0.0 | 0.00 | 0.00 | 0.00 | 94 | 1016.0 |
| 20260504003751 | 53 | 331 | 0.9 | 0.0 | 0.00 | 0.00 | 0.00 | 94 | 1016.0 |
| 20260504003351 | 53 | 331 | 0.9 | 0.0 | 0.00 | 0.00 | 0.00 | 94 | 1016.0 |
| 20260504003250 | 53 | 331 | 0.9 | 0.0 | 0.00 | 0.00 | 0.00 | 94 | 1016.0 |
| 20260504002850 | 53 | 331 | 0.9 | 0.0 | 0.00 | 0.00 | 0.00 | 94 | 1016.0 |
| 20260504002750 | 53 | 331 | 0.9 | 0.0 | 0.00 | 0.00 | 0.00 | 94 | 1016.0 |
| 20260504002349 | 53 | 331 | 0.9 | 0.0 | 0.00 | 0.00 | 0.00 | 94 | 1016.0 |
| 20260504002249 | 53 | 331 | 0.9 | 0.0 | 0.00 | 0.00 | 0.00 | 94 | 1016.0 |
| 20260504001848 | 53 | 331 | 0.9 | 0.0 | 0.00 | 0.00 | 0.00 | 94 | 1016.0 |
| 20260504001748 | 53 | 331 | 0.9 | 0.0 | 0.00 | 0.00 | 0.00 | 94 | 1016.0 |
| 20260504001348 | 53 | 331 | 0.9 | 0.0 | 0.00 | 0.00 | 0.00 | 94 | 1016.0 |
| 20260504001247 | 53 | 331 | 0.9 | 0.0 | 0.00 | 0.00 | 0.00 | 94 | 1016.0 |
| 20260504000847 | 53 | 331 | 0.9 | 0.0 | 0.00 | 0.00 | 0.00 | 94 | 1016.0 |
| 20260504000747 | 53 | 331 | 0.9 | 0.0 | 0.00 | 0.00 | 0.00 | 94 | 1016.0 |
| 20260504000346 | 53 | 331 | 0.9 | 0.0 | 0.00 | 0.00 | 0.00 | 94 | 1016.0 |
| 20260504000246 | 53 | 331 | 0.9 | 0.0 | 0.00 | 0.00 | 0.00 | 94 | 1016.0 |
| 20260503235845 | 53 | 331 | 0.9 | 0.0 | 0.00 | 0.00 | 0.00 | 94 | 1016.0 |
| 20260503235748 | 53 | 331 | 0.9 | 0.0 | 0.00 | 0.00 | 0.00 | 94 | 1016.0 |
| 20260503235346 | 53 | 331 | 0.9 | 0.0 | 0.00 | 0.00 | 0.00 | 94 | 1016.0 |
| 20260503235247 | 53 | 331 | 0.9 | 0.0 | 0.00 | 0.00 | 0.00 | 94 | 1016.0 |
| 20260503234844 | 53 | 331 | 0.9 | 0.0 | 0.00 | 0.00 | 0.00 | 94 | 1016.0 |
| 20260503234744 | 53 | 331 | 0.9 | 0.0 | 0.00 | 0.00 | 0.00 | 94 | 1016.0 |
| 20260503234344 | 53 | 331 | 0.9 | 0.0 | 0.00 | 0.00 | 0.00 | 94 | 1016.0 |
| 20260503234243 | 53 | 331 | 0.9 | 0.0 | 0.00 | 0.00 | 0.00 | 94 | 1016.0 |
| 20260503233843 | 53 | 331 | 0.9 | 0.0 | 0.00 | 0.00 | 0.00 | 94 | 1016.0 |
| 20260503233743 | 53 | 331 | 0.9 | 0.0 | 0.00 | 0.00 | 0.00 | 94 | 1016.0 |
| 20260503233342 | 53 | 331 | 0.9 | 0.0 | 0.00 | 0.00 | 0.00 | 94 | 1016.0 |
| 20260503233242 | 53 | 331 | 0.9 | 0.0 | 0.00 | 0.00 | 0.00 | 94 | 1016.0 |
| 20260503232741 | 53 | 331 | 0.9 | 0.0 | 0.00 | 0.00 | 0.00 | 94 | 1016.0 |
| 20260503232341 | 53 | 331 | 0.9 | 0.0 | 0.00 | 0.00 | 0.00 | 94 | 1016.0 |
| 20260503232241 | 53 | 331 | 0.9 | 0.0 | 0.00 | 0.00 | 0.00 | 94 | 1016.0 |
| 20260503231840 | 53 | 331 | 0.9 | 0.0 | 0.00 | 0.00 | 0.00 | 94 | 1016.0 |
| 20260503231740 | 53 | 331 | 0.9 | 0.0 | 0.00 | 0.00 | 0.00 | 94 | 1016.0 |
| 20260503231339 | 53 | 331 | 0.9 | 0.0 | 0.00 | 0.00 | 0.00 | 94 | 1016.0 |
| 20260503231239 | 53 | 331 | 0.9 | 0.0 | 0.00 | 0.00 | 0.00 | 94 | 1016.0 |
| 20260503230838 | 53 | 331 | 0.9 | 0.0 | 0.00 | 0.00 | 0.00 | 94 | 1016.0 |
| 20260503230738 | 53 | 331 | 0.9 | 0.0 | 0.00 | 0.00 | 0.00 | 94 | 1016.0 |
| 20260503230338 | 53 | 331 | 0.9 | 0.0 | 0.00 | 0.00 | 0.00 | 94 | 1016.0 |
| 20260503230237 | 53 | 331 | 0.9 | 0.0 | 0.00 | 0.00 | 0.00 | 94 | 1016.0 |
| 20260503225837 | 53 | 331 | 0.9 | 0.0 | 0.00 | 0.00 | 0.00 | 94 | 1016.0 |
| 20260503225737 | 53 | 331 | 0.9 | 0.0 | 0.00 | 0.00 | 0.00 | 94 | 1016.0 |
| 20260503225336 | 53 | 331 | 0.9 | 0.0 | 0.00 | 0.00 | 0.00 | 94 | 1016.0 |
| 20260503225236 | 53 | 331 | 0.9 | 0.0 | 0.00 | 0.00 | 0.00 | 94 | 1016.0 |
| 20260503224835 | 53 | 331 | 0.9 | 0.0 | 0.00 | 0.00 | 0.00 | 94 | 1016.0 |
| 20260503224735 | 53 | 331 | 0.9 | 0.0 | 0.00 | 0.00 | 0.00 | 94 | 1016.0 |
| 20260503224335 | 53 | 331 | 0.9 | 0.0 | 0.00 | 0.00 | 0.00 | 94 | 1016.0 |
| 20260503224234 | 53 | 331 | 0.9 | 0.0 | 0.00 | 0.00 | 0.00 | 94 | 1016.0 |
| 20260503223834 | 53 | 331 | 0.9 | 0.0 | 0.00 | 0.00 | 0.00 | 94 | 1016.0 |
| 20260503223733 | 53 | 331 | 0.9 | 0.0 | 0.00 | 0.00 | 0.00 | 94 | 1016.0 |
| 20260503223333 | 53 | 331 | 0.9 | 0.0 | 0.00 | 0.00 | 0.00 | 94 | 1016.0 |
| 20260503223233 | 53 | 331 | 0.9 | 0.0 | 0.00 | 0.00 | 0.00 | 94 | 1016.0 |
| 20260503222832 | 53 | 331 | 0.9 | 0.0 | 0.00 | 0.00 | 0.00 | 94 | 1016.0 |
| 20260503222732 | 53 | 331 | 0.9 | 0.0 | 0.00 | 0.00 | 0.00 | 94 | 1016.0 |
| 20260503222332 | 53 | 331 | 0.9 | 0.0 | 0.00 | 0.00 | 0.00 | 94 | 1016.0 |
| 20260503222231 | 53 | 331 | 0.9 | 0.0 | 0.00 | 0.00 | 0.00 | 94 | 1016.0 |
| 20260503221831 | 53 | 331 | 0.9 | 0.0 | 0.00 | 0.00 | 0.00 | 94 | 1016.0 |
| 20260503221730 | 53 | 331 | 0.9 | 0.0 | 0.00 | 0.00 | 0.00 | 94 | 1016.0 |
| 20260503221330 | 53 | 331 | 0.9 | 0.0 | 0.00 | 0.00 | 0.00 | 94 | 1016.0 |
| 20260503221230 | 53 | 331 | 0.9 | 0.0 | 0.00 | 0.00 | 0.00 | 94 | 1016.0 |
| 20260503220829 | 53 | 331 | 0.9 | 0.0 | 0.00 | 0.00 | 0.00 | 94 | 1016.0 |
| 20260503220729 | 53 | 331 | 0.9 | 0.0 | 0.00 | 0.00 | 0.00 | 94 | 1016.0 |
| 20260503220328 | 53 | 331 | 0.9 | 0.0 | 0.00 | 0.00 | 0.00 | 94 | 1016.0 |
| 20260503220228 | 53 | 331 | 0.9 | 0.0 | 0.00 | 0.00 | 0.00 | 94 | 1016.0 |
| 20260503215827 | 53 | 331 | 0.9 | 0.0 | 0.00 | 0.00 | 0.00 | 94 | 1016.0 |
| 20260503215727 | 53 | 331 | 0.9 | 0.0 | 0.00 | 0.00 | 0.00 | 94 | 1016.0 |
| 20260503215327 | 53 | 331 | 0.9 | 0.0 | 0.00 | 0.00 | 0.00 | 94 | 1016.0 |
| 20260503215226 | 53 | 331 | 0.9 | 0.0 | 0.00 | 0.00 | 0.00 | 94 | 1016.0 |
| 20260503214826 | 53 | 331 | 0.9 | 0.0 | 0.00 | 0.00 | 0.00 | 94 | 1016.0 |
| 20260503214726 | 53 | 331 | 0.9 | 0.0 | 0.00 | 0.00 | 0.00 | 94 | 1016.0 |
| 20260503214325 | 53 | 331 | 0.9 | 0.0 | 0.00 | 0.00 | 0.00 | 94 | 1016.0 |
| 20260503214225 | 53 | 331 | 0.9 | 0.0 | 0.00 | 0.00 | 0.00 | 94 | 1016.0 |
| 20260503213825 | 53 | 331 | 0.9 | 0.0 | 0.00 | 0.00 | 0.00 | 94 | 1016.0 |
| 20260503213724 | 53 | 331 | 0.9 | 0.0 | 0.00 | 0.00 | 0.00 | 94 | 1016.0 |
| 20260503213323 | 53 | 331 | 0.9 | 0.0 | 0.00 | 0.00 | 0.00 | 94 | 1016.0 |
| 20260503213223 | 53 | 331 | 0.9 | 0.0 | 0.00 | 0.00 | 0.00 | 94 | 1016.0 |
| 20260503212823 | 53 | 331 | 0.9 | 0.0 | 0.00 | 0.00 | 0.00 | 94 | 1015.0 |
| 20260503212722 | 53 | 331 | 0.9 | 0.0 | 0.00 | 0.00 | 0.00 | 94 | 1015.0 |
| 20260503212322 | 53 | 331 | 0.9 | 0.0 | 0.00 | 0.00 | 0.00 | 94 | 1015.0 |
| 20260503212221 | 53 | 331 | 0.9 | 0.0 | 0.00 | 0.00 | 0.00 | 94 | 1015.0 |
| 20260503211821 | 53 | 331 | 0.9 | 0.0 | 0.00 | 0.00 | 0.00 | 94 | 1015.0 |
| 20260503211721 | 53 | 331 | 0.9 | 0.0 | 0.00 | 0.00 | 0.00 | 94 | 1015.0 |
| 20260503211320 | 53 | 331 | 0.9 | 0.0 | 0.00 | 0.00 | 0.00 | 94 | 1015.0 |
| 20260503211220 | 53 | 331 | 0.9 | 0.0 | 0.00 | 0.00 | 0.00 | 94 | 1015.0 |
| 20260503210819 | 53 | 331 | 0.9 | 0.0 | 0.00 | 0.00 | 0.00 | 94 | 1015.0 |
| 20260503210719 | 53 | 331 | 0.9 | 0.0 | 0.00 | 0.00 | 0.00 | 94 | 1015.0 |
| 20260503210318 | 53 | 331 | 0.9 | 0.0 | 0.00 | 0.00 | 0.00 | 94 | 1016.0 |
| 20260503210218 | 53 | 331 | 0.9 | 0.0 | 0.00 | 0.00 | 0.00 | 94 | 1016.0 |
| 20260503205818 | 53 | 331 | 0.9 | 0.0 | 0.00 | 0.00 | 0.00 | 94 | 1016.0 |
| 20260503205717 | 53 | 331 | 0.9 | 0.0 | 0.00 | 0.00 | 0.00 | 94 | 1016.0 |
| 20260503205317 | 53 | 331 | 0.9 | 0.0 | 0.00 | 0.00 | 0.00 | 94 | 1016.0 |
| 20260503205217 | 53 | 331 | 0.9 | 0.0 | 0.00 | 0.00 | 0.00 | 94 | 1016.0 |
| 20260503204816 | 53 | 331 | 0.9 | 0.0 | 0.00 | 0.00 | 0.00 | 94 | 1016.0 |
| 20260503204716 | 53 | 331 | 0.9 | 0.0 | 0.00 | 0.00 | 0.00 | 94 | 1016.0 |
| 20260503204315 | 53 | 331 | 0.9 | 0.0 | 0.00 | 0.00 | 0.00 | 94 | 1016.0 |
| 20260503204215 | 53 | 331 | 0.9 | 0.0 | 0.00 | 0.00 | 0.00 | 94 | 1016.0 |
| 20260503203814 | 56 | 315 | 4.3 | 9.6 | 0.00 | 0.00 | 0.00 | 89 | 1016.0 |
| 20260503203714 | 56 | 315 | 4.3 | 9.6 | 0.00 | 0.00 | 0.00 | 89 | 1016.0 |
| 20260503203314 | 56 | 315 | 4.3 | 9.6 | 0.00 | 0.00 | 0.00 | 89 | 1016.0 |
| 20260503203214 | 56 | 315 | 4.3 | 9.6 | 0.00 | 0.00 | 0.00 | 89 | 1016.0 |
| 20260503202813 | 56 | 315 | 4.3 | 9.6 | 0.00 | 0.00 | 0.00 | 89 | 1015.0 |
| 20260503202713 | 56 | 315 | 4.3 | 9.6 | 0.00 | 0.00 | 0.00 | 89 | 1015.0 |
| 20260503202312 | 56 | 315 | 4.3 | 9.6 | 0.00 | 0.00 | 0.00 | 89 | 1015.0 |
| 20260503202212 | 56 | 315 | 4.3 | 9.6 | 0.00 | 0.00 | 0.00 | 89 | 1015.0 |
| 20260503201811 | 56 | 315 | 4.3 | 9.6 | 0.00 | 0.00 | 0.00 | 89 | 1015.0 |
| 20260503201711 | 56 | 315 | 4.3 | 9.6 | 0.00 | 0.00 | 0.00 | 89 | 1015.0 |
| 20260503201311 | 56 | 315 | 4.3 | 9.6 | 0.00 | 0.00 | 0.00 | 89 | 1015.0 |
| 20260503201210 | 56 | 315 | 4.3 | 9.6 | 0.00 | 0.00 | 0.00 | 89 | 1015.0 |
| 20260503200810 | 56 | 315 | 4.3 | 9.6 | 0.00 | 0.00 | 0.00 | 89 | 1015.0 |
| 20260503200709 | 56 | 315 | 4.3 | 9.6 | 0.00 | 0.00 | 0.00 | 89 | 1015.0 |
| 20260503200309 | 56 | 315 | 4.3 | 9.6 | 0.00 | 0.00 | 0.00 | 89 | 1015.0 |
| 20260503200208 | 56 | 315 | 4.3 | 9.6 | 0.00 | 0.00 | 0.00 | 89 | 1015.0 |
| 20260503195808 | 56 | 315 | 4.3 | 9.6 | 0.00 | 0.00 | 0.00 | 89 | 1015.0 |
| 20260503195708 | 56 | 315 | 4.3 | 9.6 | 0.00 | 0.00 | 0.00 | 89 | 1015.0 |
| 20260503195308 | 56 | 315 | 4.3 | 9.6 | 0.00 | 0.00 | 0.00 | 89 | 1015.0 |
| 20260503195207 | 56 | 315 | 4.3 | 9.6 | 0.00 | 0.00 | 0.00 | 89 | 1015.0 |
| 20260503194807 | 56 | 315 | 4.3 | 9.6 | 0.00 | 0.00 | 0.00 | 89 | 1015.0 |
| 20260503194706 | 56 | 315 | 4.3 | 9.6 | 0.00 | 0.00 | 0.00 | 89 | 1015.0 |
| 20260503194206 | 56 | 315 | 4.3 | 9.6 | 0.00 | 0.00 | 0.00 | 89 | 1015.0 |
| 20260503193806 | 56 | 315 | 4.3 | 9.6 | 0.00 | 0.00 | 0.00 | 89 | 1015.0 |
| 20260503193705 | 56 | 315 | 4.3 | 9.6 | 0.00 | 0.00 | 0.00 | 89 | 1015.0 |
| 20260503193305 | 56 | 315 | 4.3 | 9.6 | 0.00 | 0.00 | 0.00 | 89 | 1015.0 |
| 20260503193205 | 56 | 315 | 4.3 | 9.6 | 0.00 | 0.00 | 0.00 | 89 | 1015.0 |
| 20260503192804 | 56 | 315 | 4.3 | 9.6 | 0.00 | 0.00 | 0.00 | 89 | 1014.0 |
| 20260503192704 | 56 | 315 | 4.3 | 9.6 | 0.00 | 0.00 | 0.00 | 89 | 1014.0 |
| 20260503192305 | 56 | 315 | 4.3 | 9.6 | 0.00 | 0.00 | 0.00 | 89 | 1014.0 |
| 20260503192203 | 56 | 315 | 4.3 | 9.6 | 0.00 | 0.00 | 0.00 | 89 | 1014.0 |
| 20260503191803 | 56 | 315 | 4.3 | 9.6 | 0.00 | 0.00 | 0.00 | 89 | 1014.0 |
| 20260503191702 | 56 | 315 | 4.3 | 9.6 | 0.00 | 0.00 | 0.00 | 89 | 1014.0 |
| 20260503191302 | 56 | 315 | 4.3 | 9.6 | 0.00 | 0.00 | 0.00 | 89 | 1014.0 |
| 20260503191201 | 56 | 315 | 4.3 | 9.6 | 0.00 | 0.00 | 0.00 | 89 | 1014.0 |
| 20260503190801 | 56 | 315 | 4.3 | 9.6 | 0.00 | 0.00 | 0.00 | 89 | 1014.0 |
| 20260503190701 | 56 | 315 | 4.3 | 9.6 | 0.00 | 0.00 | 0.00 | 89 | 1014.0 |
| 20260503190300 | 56 | 315 | 4.3 | 9.6 | 0.00 | 0.00 | 0.00 | 89 | 1014.0 |
| 20260503190200 | 56 | 315 | 4.3 | 9.6 | 0.00 | 0.00 | 0.00 | 89 | 1014.0 |
| 20260503185800 | 56 | 315 | 4.3 | 9.6 | 0.00 | 0.00 | 0.00 | 89 | 1014.0 |
| 20260503185659 | 56 | 315 | 4.3 | 9.6 | 0.00 | 0.00 | 0.00 | 89 | 1014.0 |
| 20260503185259 | 56 | 315 | 4.3 | 9.6 | 0.00 | 0.00 | 0.00 | 89 | 1014.0 |
| 20260503185159 | 56 | 315 | 4.3 | 9.6 | 0.00 | 0.00 | 0.00 | 89 | 1014.0 |
| 20260503184758 | 56 | 315 | 4.3 | 9.6 | 0.00 | 0.00 | 0.00 | 89 | 1014.0 |
| 20260503184658 | 56 | 315 | 4.3 | 9.6 | 0.00 | 0.00 | 0.00 | 89 | 1014.0 |
| 20260503184257 | 56 | 315 | 4.3 | 10.4 | 0.00 | 0.00 | 0.00 | 89 | 1014.0 |
| 20260503184157 | 56 | 315 | 4.3 | 10.4 | 0.00 | 0.00 | 0.00 | 89 | 1014.0 |
| 20260503183757 | 61 | 221 | 4.3 | 7.0 | 0.00 | 0.00 | 0.00 | 66 | 1014.0 |
| 20260503183656 | 61 | 221 | 4.3 | 7.0 | 0.00 | 0.00 | 0.00 | 66 | 1014.0 |
| 20260503182755 | 61 | 221 | 4.3 | 7.0 | 0.00 | 0.00 | 0.00 | 66 | 1014.0 |
| 20260503182655 | 61 | 221 | 4.3 | 7.0 | 0.00 | 0.00 | 0.00 | 66 | 1014.0 |
| 20260503182255 | 61 | 221 | 4.3 | 7.0 | 0.00 | 0.00 | 0.00 | 66 | 1014.0 |
| 20260503182154 | 61 | 221 | 4.3 | 7.0 | 0.00 | 0.00 | 0.00 | 66 | 1014.0 |
| 20260503181754 | 61 | 221 | 4.3 | 7.0 | 0.00 | 0.00 | 0.00 | 66 | 1014.0 |
| 20260503181654 | 61 | 221 | 4.3 | 7.0 | 0.00 | 0.00 | 0.00 | 66 | 1014.0 |
| 20260503181253 | 61 | 221 | 4.3 | 7.0 | 0.00 | 0.00 | 0.00 | 66 | 1014.0 |
| 20260503181153 | 61 | 221 | 4.3 | 7.0 | 0.00 | 0.00 | 0.00 | 66 | 1014.0 |
| 20260503180752 | 61 | 221 | 4.3 | 7.0 | 0.00 | 0.00 | 0.00 | 66 | 1014.0 |
| 20260503180652 | 61 | 221 | 4.3 | 7.0 | 0.00 | 0.00 | 0.00 | 66 | 1014.0 |
| 20260503180251 | 61 | 221 | 4.3 | 7.0 | 0.00 | 0.00 | 0.00 | 66 | 1014.0 |
| 20260503180151 | 61 | 221 | 4.3 | 7.0 | 0.00 | 0.00 | 0.00 | 66 | 1014.0 |
| 20260503175750 | 61 | 221 | 4.3 | 7.0 | 0.00 | 0.00 | 0.00 | 66 | 1014.0 |
| 20260503175650 | 61 | 221 | 4.3 | 7.0 | 0.00 | 0.00 | 0.00 | 66 | 1014.0 |
| 20260503175250 | 61 | 221 | 4.3 | 7.0 | 0.00 | 0.00 | 0.00 | 66 | 1014.0 |
| 20260503175149 | 61 | 221 | 4.3 | 7.0 | 0.00 | 0.00 | 0.00 | 66 | 1014.0 |
| 20260503174749 | 61 | 221 | 4.3 | 7.0 | 0.00 | 0.00 | 0.00 | 66 | 1014.0 |
| 20260503174649 | 61 | 221 | 4.3 | 7.0 | 0.00 | 0.00 | 0.00 | 66 | 1014.0 |
| 20260503174248 | 61 | 221 | 4.3 | 7.0 | 0.00 | 0.00 | 0.00 | 66 | 1014.0 |
| 20260503174148 | 61 | 221 | 4.3 | 7.0 | 0.00 | 0.00 | 0.00 | 66 | 1014.0 |
| 20260503173747 | 61 | 221 | 4.3 | 7.0 | 0.00 | 0.00 | 0.00 | 66 | 1014.0 |
| 20260503173647 | 61 | 221 | 4.3 | 7.0 | 0.00 | 0.00 | 0.00 | 66 | 1014.0 |
| 20260503173246 | 61 | 221 | 4.3 | 7.0 | 0.00 | 0.00 | 0.00 | 66 | 1013.0 |
| 20260503173146 | 61 | 221 | 4.3 | 7.0 | 0.00 | 0.00 | 0.00 | 66 | 1013.0 |
| 20260503172746 | 61 | 221 | 4.3 | 7.0 | 0.00 | 0.00 | 0.00 | 66 | 1013.0 |
| 20260503172645 | 61 | 221 | 4.3 | 7.0 | 0.00 | 0.00 | 0.00 | 66 | 1013.0 |
| 20260503172245 | 61 | 221 | 4.3 | 7.0 | 0.00 | 0.00 | 0.00 | 66 | 1013.0 |
| 20260503172144 | 61 | 221 | 4.3 | 7.0 | 0.00 | 0.00 | 0.00 | 66 | 1013.0 |
| 20260503171744 | 61 | 221 | 4.3 | 7.0 | 0.00 | 0.00 | 0.00 | 66 | 1013.0 |
| 20260503171644 | 61 | 221 | 4.3 | 7.0 | 0.00 | 0.00 | 0.00 | 66 | 1013.0 |
| 20260503171243 | 61 | 221 | 4.3 | 7.0 | 0.00 | 0.00 | 0.00 | 66 | 1013.0 |
| 20260503171143 | 61 | 221 | 4.3 | 7.0 | 0.00 | 0.00 | 0.00 | 66 | 1013.0 |
| 20260503170242 | 61 | 221 | 4.3 | 7.0 | 0.00 | 0.00 | 0.00 | 66 | 1014.0 |
| 20260503170142 | 61 | 221 | 4.3 | 7.0 | 0.00 | 0.00 | 0.00 | 66 | 1014.0 |
| 20260503160133 | 61 | 221 | 4.3 | 7.0 | 0.00 | 0.00 | 0.00 | 66 | 1013.0 |
| 20260503150725 | 61 | 221 | 4.3 | 7.0 | 0.00 | 0.00 | 0.00 | 66 | 1013.0 |
| 20260503150625 | 61 | 221 | 4.3 | 7.0 | 0.00 | 0.00 | 0.00 | 66 | 1013.0 |
| 20260503150225 | 61 | 221 | 4.3 | 7.0 | 0.00 | 0.00 | 0.00 | 66 | 1013.0 |
| 20260503150124 | 61 | 221 | 4.3 | 7.0 | 0.00 | 0.00 | 0.00 | 66 | 1013.0 |